Time;durP1;ratioP1;P1;durP2;ratioP2;P2;SDS_P1;SDS_P2;PMS_P1;PMS_P2;Temp;Humidity;BMP_temperature;BMP_pressure;BME280_temperature;BME280_humidity;BME280_pressure;Samples;Min_cycle;Max_cycle;Signal;HPM_P1;HPM_P2
2022/06/21 00:00:04;;;;;;;9.85;1.67;;;;;;;12.13;100.00;100759.88;5071491;28;20532;-81
2022/06/21 00:02:31;;;;;;;6.88;1.60;;;;;;;12.11;100.00;100754.66;5073758;28;20032;-81
2022/06/21 00:04:57;;;;;;;8.35;1.70;;;;;;;12.12;100.00;100756.34;5072872;28;20500;-81
2022/06/21 00:07:26;;;;;;;7.25;1.40;;;;;;;11.91;100.00;100714.25;5072331;28;20033;-81
2022/06/21 00:09:52;;;;;;;8.10;1.77;;;;;;;11.80;100.00;100697.88;5089303;28;20094;-81
2022/06/21 00:12:19;;;;;;;9.48;1.50;;;;;;;11.98;100.00;100727.72;5057005;28;20024;-79
2022/06/21 00:14:44;;;;;;;7.03;1.65;;;;;;;11.96;100.00;100733.34;5073096;28;20082;-80
2022/06/21 00:17:13;;;;;;;8.52;1.75;;;;;;;12.04;100.00;100745.75;5074674;28;20036;-80
2022/06/21 00:19:41;;;;;;;7.15;2.25;;;;;;;12.06;100.00;100751.78;5069804;28;20067;-81
2022/06/21 00:22:11;;;;;;;8.65;1.83;;;;;;;11.85;100.00;100703.47;5072480;28;20090;-81
2022/06/21 00:24:55;;;;;;;8.48;1.65;;;;;;;12.07;100.00;100747.22;5071798;28;20036;-81
2022/06/21 00:27:21;;;;;;;8.02;1.55;;;;;;;12.04;100.00;100748.47;5053727;28;20056;-81
2022/06/21 00:29:48;;;;;;;6.93;1.50;;;;;;;11.93;100.00;100738.31;5072887;28;20033;-81
2022/06/21 00:32:19;;;;;;;9.57;1.50;;;;;;;11.94;100.00;100742.66;5070979;28;20036;-81
2022/06/21 00:34:47;;;;;;;5.47;1.58;;;;;;;11.87;100.00;100741.84;5073765;28;20108;-81
2022/06/21 00:37:19;;;;;;;6.85;1.30;;;;;;;11.80;100.00;100736.44;5057453;28;20101;-82
2022/06/21 00:39:45;;;;;;;7.28;1.77;;;;;;;11.77;100.00;100734.97;5072018;28;20039;-81
2022/06/21 00:42:19;;;;;;;10.95;1.85;;;;;;;11.63;100.00;100702.88;5074902;28;20032;-80
2022/06/21 00:45:04;;;;;;;7.57;1.63;;;;;;;11.83;100.00;100741.41;5072252;28;20094;-80
2022/06/21 00:47:55;;;;;;;6.75;1.60;;;;;;;11.83;100.00;100740.59;5067058;28;20298;-80
2022/06/21 00:50:34;;;;;;;11.38;1.50;;;;;;;11.78;100.00;100738.50;5075632;28;20110;-80
2022/06/21 00:53:07;;;;;;;8.32;1.70;;;;;;;11.68;100.00;100725.44;5072948;28;20075;-80
2022/06/21 00:55:51;;;;;;;7.78;2.22;;;;;;;11.72;100.00;100740.19;5071541;28;20033;-81
2022/06/21 00:58:19;;;;;;;5.43;1.42;;;;;;;11.55;100.00;100711.16;5073567;28;20021;-81
2022/06/21 01:01:05;;;;;;;10.43;1.95;;;;;;;11.70;100.00;100733.34;5087345;28;20331;-81
2022/06/21 01:03:51;;;;;;;9.13;1.85;;;;;;;11.66;100.00;100737.50;5057501;28;20020;-82
2022/06/21 01:06:32;;;;;;;4.85;1.77;;;;;;;11.62;100.00;100725.44;5071947;28;20405;-79
2022/06/21 01:09:06;;;;;;;4.75;1.48;;;;;;;11.61;100.00;100723.78;5072333;28;20032;-82
2022/06/21 01:11:49;;;;;;;5.57;1.48;;;;;;;11.57;100.00;100715.31;5077459;28;20065;-81
2022/06/21 01:14:17;;;;;;;8.25;2.08;;;;;;;11.43;100.00;100687.53;5055071;28;20029;-80
2022/06/21 01:16:44;;;;;;;9.55;2.55;;;;;;;11.58;100.00;100700.78;5062846;28;20049;-81
2022/06/21 01:19:24;;;;;;;11.75;2.40;;;;;;;11.81;100.00;100711.13;5057500;28;20048;-80
2022/06/21 01:21:54;;;;;;;7.75;2.53;;;;;;;11.81;100.00;100694.94;5053830;28;20031;-80
2022/06/21 01:24:29;;;;;;;8.38;2.50;;;;;;;11.87;100.00;100687.94;5052905;28;20021;-81
2022/06/21 01:27:01;;;;;;;7.82;2.40;;;;;;;11.91;100.00;100699.94;5044352;28;20033;-80
2022/06/21 01:29:30;;;;;;;9.85;2.38;;;;;;;11.87;100.00;100698.72;5071888;28;20131;-80
2022/06/21 01:31:58;;;;;;;10.60;2.35;;;;;;;11.92;100.00;100699.75;5068071;28;20456;-80
2022/06/21 01:34:26;;;;;;;9.23;2.85;;;;;;;11.94;100.00;100694.97;5085150;28;20111;-80
2022/06/21 01:37:18;;;;;;;11.85;2.60;;;;;;;12.01;100.00;100697.63;5070872;28;20058;-80
2022/06/21 01:40:10;;;;;;;9.98;2.65;;;;;;;12.05;100.00;100695.34;5068316;28;20488;-80
2022/06/21 01:42:44;;;;;;;9.98;2.83;;;;;;;12.01;100.00;100681.47;5069877;28;20123;-80
2022/06/21 01:45:19;;;;;;;8.63;2.50;;;;;;;12.06;100.00;100681.66;5073176;28;20100;-79
2022/06/21 01:47:58;;;;;;;10.25;2.58;;;;;;;12.10;100.00;100685.59;5071628;28;20378;-80
2022/06/21 01:50:23;;;;;;;8.82;2.45;;;;;;;12.16;100.00;100682.03;5076288;28;20024;-80
2022/06/21 01:52:52;;;;;;;14.00;2.90;;;;;;;12.08;100.00;100673.34;5075380;28;20042;-80
2022/06/21 01:55:34;;;;;;;9.60;2.70;;;;;;;12.13;100.00;100685.16;5076680;28;20090;-81
2022/06/21 01:58:01;;;;;;;11.25;3.10;;;;;;;12.14;100.00;100686.81;5070248;28;20044;-80
2022/06/21 02:00:31;;;;;;;8.77;2.90;;;;;;;12.15;100.00;100684.94;5077155;28;20043;-80
2022/06/21 02:03:06;;;;;;;15.98;3.40;;;;;;;12.13;100.00;100679.78;5075629;28;20048;-80
2022/06/21 02:05:37;;;;;;;9.10;2.75;;;;;;;12.16;100.00;100681.22;5073605;28;20099;-80
2022/06/21 02:08:12;;;;;;;8.75;2.53;;;;;;;11.97;100.00;100658.66;5092553;28;20043;-81
2022/06/21 02:10:43;;;;;;;8.73;2.85;;;;;;;12.17;100.00;100680.19;5056345;28;20039;-81
2022/06/21 02:13:19;;;;;;;11.65;2.70;;;;;;;12.16;100.00;100681.22;5076950;28;20101;-81
2022/06/21 02:15:51;;;;;;;8.70;2.70;;;;;;;12.11;100.00;100664.84;5074152;28;20268;-78
2022/06/21 02:18:19;;;;;;;10.25;2.75;;;;;;;11.98;100.00;100646.81;5075362;28;20035;-81
2022/06/21 02:20:54;;;;;;;10.95;3.60;;;;;;;12.28;100.00;100684.06;5058050;28;20098;-80
2022/06/21 02:23:23;;;;;;;11.13;2.92;;;;;;;12.32;100.00;100688.84;5069693;28;20107;-80
2022/06/21 02:25:51;;;;;;;12.55;2.80;;;;;;;12.36;100.00;100681.97;5076361;28;20059;-79
2022/06/21 02:28:19;;;;;;;11.00;3.00;;;;;;;12.44;100.00;100691.69;5074123;28;20028;-80
2022/06/21 02:30:47;;;;;;;11.40;3.13;;;;;;;12.35;100.00;100665.97;5075603;28;20111;-80
2022/06/21 02:33:19;;;;;;;8.07;2.47;;;;;;;12.56;100.00;100686.47;5072818;28;20350;-81
2022/06/21 02:35:49;;;;;;;13.13;2.90;;;;;;;12.76;100.00;100687.19;5075462;28;20025;-81
2022/06/21 02:38:20;;;;;;;11.73;2.60;;;;;;;13.02;100.00;100693.47;5074569;28;20052;-80
2022/06/21 02:40:57;;;;;;;8.35;2.50;;;;;;;13.07;100.00;100647.72;5073656;28;20024;-80
2022/06/21 02:43:30;;;;;;;10.05;2.67;;;;;;;13.64;100.00;100670.13;5074742;28;20056;-80
2022/06/21 02:46:08;;;;;;;12.52;3.03;;;;;;;14.20;100.00;100682.63;5068785;28;20371;-81
2022/06/21 02:48:40;;;;;;;9.48;2.33;;;;;;;14.51;100.00;100695.22;5074969;28;20111;-80
2022/06/21 02:51:10;;;;;;;8.25;2.20;;;;;;;14.36;100.00;100627.06;5073241;28;20037;-80
2022/06/21 02:53:42;;;;;;;9.43;2.38;;;;;;;14.89;100.00;100679.69;5074994;28;20047;-80
2022/06/21 02:56:22;;;;;;;10.15;2.47;;;;;;;15.07;100.00;100704.03;5072532;28;20036;-81
2022/06/21 02:58:55;;;;;;;6.97;2.58;;;;;;;15.17;100.00;100684.50;5075664;28;20411;-79
2022/06/21 03:01:29;;;;;;;4.90;2.03;;;;;;;14.96;100.00;100613.50;5072703;28;20052;-80
2022/06/21 03:03:56;;;;;;;5.17;1.97;;;;;;;15.62;100.00;100675.81;5073005;28;20028;-80
2022/06/21 03:06:22;;;;;;;7.95;2.40;;;;;;;15.95;100.00;100683.38;5075595;28;20034;-81
2022/06/21 03:09:00;;;;;;;6.40;2.08;;;;;;;16.51;100.00;100705.47;5057032;28;20029;-80
2022/06/21 03:11:28;;;;;;;9.88;2.00;;;;;;;16.95;100.00;100705.81;5077830;28;20088;-79
2022/06/21 03:13:56;;;;;;;5.63;1.85;;;;;;;17.20;100.00;100711.72;5081143;28;20473;-80
2022/06/21 03:16:28;;;;;;;6.35;1.80;;;;;;;17.54;100.00;100706.28;5076163;28;20051;-80
2022/06/21 03:18:58;;;;;;;6.55;1.90;;;;;;;17.92;100.00;100696.56;5091467;28;20024;-80
2022/06/21 03:21:30;;;;;;;9.18;1.98;;;;;;;18.03;100.00;100673.84;5076030;28;20062;-79
2022/06/21 03:23:58;;;;;;;6.25;1.83;;;;;;;18.37;100.00;100703.69;5074431;28;20103;-80
2022/06/21 03:26:26;;;;;;;11.02;2.05;;;;;;;18.64;100.00;100690.09;5075017;28;20024;-81
2022/06/21 03:28:52;;;;;;;8.32;1.75;;;;;;;18.91;100.00;100684.72;5076706;28;20028;-80
2022/06/21 03:31:48;;;;;;;7.88;1.70;;;;;;;19.34;100.00;100677.47;5053243;28;20029;-80
2022/06/21 03:34:16;;;;;;;8.02;2.10;;;;;;;19.63;98.36;100670.59;5051035;28;20036;-81
2022/06/21 03:36:42;;;;;;;13.13;2.30;;;;;;;20.00;97.06;100682.56;5068198;28;20457;-78
2022/06/21 03:42:14;;;;;;;11.65;2.10;;;;;;;20.61;95.43;100688.34;5077465;28;20073;-80
2022/06/21 03:44:45;;;;;;;13.45;2.70;;;;;;;20.96;94.32;100694.97;5057958;28;20528;-80
2022/06/21 03:47:25;;;;;;;14.88;2.90;;;;;;;21.34;92.72;100704.59;5074951;28;20056;-81
2022/06/21 03:49:59;;;;;;;14.07;2.65;;;;;;;21.56;91.25;100694.22;5075774;28;20028;-80
2022/06/21 03:52:46;;;;;;;12.63;2.75;;;;;;;21.22;90.82;100624.69;5075445;28;20386;-80
2022/06/21 03:55:32;;;;;;;16.33;2.80;;;;;;;21.79;90.49;100692.03;5076155;28;20062;-80
2022/06/21 03:58:02;;;;;;;15.88;3.13;;;;;;;22.05;89.13;100699.09;5070293;28;20031;-81
2022/06/21 04:00:35;;;;;;;18.50;2.90;;;;;;;22.18;88.67;100696.88;5077000;28;20111;-79
2022/06/21 04:03:32;;;;;;;17.15;2.90;;;;;;;22.33;87.90;100680.38;5074257;28;20020;-79
2022/06/21 04:06:13;;;;;;;14.23;3.33;;;;;;;22.69;86.50;100693.91;5076544;28;20044;-80
2022/06/21 04:08:52;;;;;;;14.98;3.25;;;;;;;23.12;85.10;100692.28;5072316;28;20354;-81
2022/06/21 04:11:26;;;;;;;17.17;3.17;;;;;;;23.40;83.84;100692.63;5075362;28;20033;-80
2022/06/21 04:13:57;;;;;;;15.85;3.17;;;;;;;23.53;82.42;100696.63;5075115;28;20028;-80
2022/06/21 04:16:45;;;;;;;12.38;2.80;;;;;;;23.73;82.15;100695.66;5075200;28;20311;-80
2022/06/21 04:19:15;;;;;;;14.93;3.15;;;;;;;23.86;80.64;100678.47;5071527;28;20533;-80
2022/06/21 04:21:52;;;;;;;15.95;3.00;;;;;;;24.26;78.91;100696.44;5065217;28;20443;-79
2022/06/21 04:24:35;;;;;;;16.80;2.88;;;;;;;24.44;75.38;100674.81;5072336;28;20074;-81
2022/06/21 04:27:24;;;;;;;12.90;2.80;;;;;;;24.78;75.88;100700.19;5068982;28;20021;-81
2022/06/21 04:29:59;;;;;;;13.80;2.05;;;;;;;24.65;75.07;100686.34;5067313;28;20021;-81
2022/06/21 04:32:34;;;;;;;11.35;2.53;;;;;;;24.73;74.70;100696.69;5066820;28;20034;-81
2022/06/21 04:35:08;;;;;;;11.88;2.30;;;;;;;24.57;74.10;100698.84;5071773;28;20024;-80
2022/06/21 04:37:55;;;;;;;9.32;2.20;;;;;;;24.38;74.12;100696.84;5058462;28;20044;-80
2022/06/21 04:40:27;;;;;;;12.13;1.90;;;;;;;23.80;75.29;100680.44;5071600;28;20094;-81
2022/06/21 04:42:55;;;;;;;14.00;2.38;;;;;;;23.16;76.58;100701.59;5072196;28;20039;-82
2022/06/21 04:45:31;;;;;;;12.45;2.33;;;;;;;22.84;77.16;100691.06;5069711;28;20020;-82
2022/06/21 04:48:26;;;;;;;15.93;2.65;;;;;;;22.85;77.88;100700.97;5059695;28;20045;-80
2022/06/21 04:51:00;;;;;;;13.27;2.80;;;;;;;22.57;79.14;100685.19;5071617;28;20036;-82
2022/06/21 04:53:37;;;;;;;13.27;2.88;;;;;;;22.89;79.22;100698.47;5069879;28;20031;-82
2022/06/21 04:56:12;;;;;;;19.48;3.22;;;;;;;22.72;79.81;100712.56;5076872;28;20025;-82
2022/06/21 04:58:37;;;;;;;13.85;3.00;;;;;;;22.79;79.85;100704.81;5088075;28;20370;-80
2022/06/21 05:01:29;;;;;;;16.48;3.22;;;;;;;22.83;79.87;100700.41;5069246;28;20029;-81
2022/06/21 05:03:52;;;;;;;16.58;2.95;;;;;;;22.58;80.73;100703.28;5071877;28;20351;-81
2022/06/21 05:06:18;;;;;;;14.95;3.00;;;;;;;22.34;80.19;100703.13;5068982;28;20060;-81
2022/06/21 05:08:48;;;;;;;14.20;3.20;;;;;;;22.02;81.03;100707.84;5035102;28;20370;-82
2022/06/21 05:11:14;;;;;;;17.13;3.42;;;;;;;21.75;81.99;100713.63;5072614;28;20083;-82
2022/06/21 05:13:49;;;;;;;16.50;3.20;;;;;;;21.74;82.80;100705.72;5075241;28;20113;-82
2022/06/21 05:16:45;;;;;;;15.43;3.42;;;;;;;21.51;83.04;100701.63;5063915;28;20059;-81
2022/06/21 05:19:19;;;;;;;14.40;2.83;;;;;;;21.30;83.81;100719.94;5050987;28;20086;-80
2022/06/21 05:22:11;;;;;;;15.50;3.05;;;;;;;21.31;84.56;100725.13;5080333;28;20018;-80
2022/06/21 05:24:37;;;;;;;17.95;2.90;;;;;;;21.13;84.19;100678.34;5093015;28;20040;-81
2022/06/21 05:27:22;;;;;;;13.13;2.80;;;;;;;21.17;84.68;100715.81;5093744;28;20043;-81
2022/06/21 05:29:47;;;;;;;;;;;;;;;21.14;86.09;100723.75;5070443;28;20048;-80
2022/06/21 05:32:17;;;;;;;17.57;3.10;;;;;;;20.97;85.66;100727.53;5072966;28;19912;-80
2022/06/21 05:34:52;;;;;;;15.40;3.20;;;;;;;20.93;85.48;100712.78;5073972;28;20273;-80
2022/06/21 05:37:40;;;;;;;14.90;2.85;;;;;;;20.72;85.96;100732.94;5071412;28;20016;-81
2022/06/21 05:40:18;;;;;;;15.57;2.90;;;;;;;20.53;85.36;100725.22;5072328;28;20335;-81
2022/06/21 05:42:44;;;;;;;13.15;2.55;;;;;;;20.48;86.82;100722.44;5072303;28;20021;-80
2022/06/21 05:45:14;;;;;;;18.88;3.63;;;;;;;20.63;86.55;100729.91;5072619;28;20032;-80
2022/06/21 05:47:49;;;;;;;12.52;3.10;;;;;;;20.63;85.95;100721.72;5075390;28;20047;-80
2022/06/21 05:50:31;;;;;;;13.30;2.83;;;;;;;20.75;86.38;100732.41;5073877;28;20027;-80
2022/06/21 05:53:08;;;;;;;19.88;2.92;;;;;;;20.96;85.48;100734.13;5068881;28;20028;-80
2022/06/21 05:55:40;;;;;;;12.55;3.03;;;;;;;20.93;84.38;100734.66;5068306;28;20025;-79
2022/06/21 05:58:16;;;;;;;13.85;3.22;;;;;;;20.56;85.14;100713.75;5072597;28;20388;-79
2022/06/21 06:01:00;;;;;;;11.98;2.85;;;;;;;20.65;86.05;100744.13;5072995;28;20091;-79
2022/06/21 06:03:55;;;;;;;8.65;2.63;;;;;;;20.52;84.71;100745.44;5075871;28;20024;-80
2022/06/21 06:06:21;;;;;;;14.63;3.25;;;;;;;20.55;85.60;100744.91;5069141;28;20103;-80
2022/06/21 06:08:51;;;;;;;13.80;2.80;;;;;;;20.42;85.10;100718.84;5075755;28;20028;-80
2022/06/21 06:11:23;;;;;;;16.65;4.05;;;;;;;20.19;85.85;100741.13;5074183;28;20024;-82
2022/06/21 06:13:50;;;;;;;16.95;3.40;;;;;;;20.17;86.88;100755.06;5074255;28;20437;-81
2022/06/21 06:16:37;;;;;;;16.13;3.38;;;;;;;20.08;88.07;100755.84;5074467;28;20028;-80
2022/06/21 06:19:12;;;;;;;16.75;3.67;;;;;;;20.08;88.01;100755.84;5076897;28;20375;-79
2022/06/21 06:21:48;;;;;;;16.25;3.40;;;;;;;19.90;89.11;100763.38;5073252;28;20020;-80
2022/06/21 06:24:24;;;;;;;14.30;3.25;;;;;;;19.61;89.69;100735.53;5056443;28;20583;-80
2022/06/21 06:26:56;;;;;;;18.13;3.80;;;;;;;19.79;90.00;100769.81;5069324;28;20082;-79
2022/06/21 06:29:37;;;;;;;18.42;3.60;;;;;;;19.82;90.23;100779.41;5054110;28;20036;-79
2022/06/21 06:32:22;;;;;;;15.90;3.53;;;;;;;20.32;88.85;100764.44;5073763;28;20454;-79
2022/06/21 06:34:52;;;;;;;17.63;3.45;;;;;;;20.47;87.70;100764.53;5075172;28;20040;-81
2022/06/21 06:37:30;;;;;;;12.95;3.08;;;;;;;20.39;85.61;100773.22;5084851;28;20024;-81
2022/06/21 06:40:05;;;;;;;18.55;4.00;;;;;;;20.03;86.22;100786.66;5070303;28;20037;-81
2022/06/21 06:42:37;;;;;;;18.23;3.50;;;;;;;19.87;86.01;100763.06;5072669;28;20170;-81
2022/06/21 06:45:14;;;;;;;16.88;3.08;;;;;;;19.88;86.56;100757.34;5073552;28;20059;-80
2022/06/21 06:47:45;;;;;;;14.13;3.42;;;;;;;19.90;86.86;100796.16;5071769;28;20362;-79
2022/06/21 06:50:21;;;;;;;14.40;3.08;;;;;;;19.91;87.41;100797.78;5073418;28;20100;-80
2022/06/21 06:52:55;;;;;;;15.85;3.42;;;;;;;19.74;87.44;100793.56;5088407;28;20032;-79
2022/06/21 06:55:35;;;;;;;23.02;3.65;;;;;;;19.60;88.37;100782.19;5075233;28;21290;-79
2022/06/21 06:58:21;;;;;;;16.90;3.13;;;;;;;19.63;88.36;100801.63;5075185;28;20847;-79
2022/06/21 07:00:54;;;;;;;20.20;4.65;;;;;;;19.66;88.54;100801.09;5069734;28;20049;-80
2022/06/21 07:03:24;;;;;;;22.60;3.47;;;;;;;19.74;87.52;100778.00;5067864;28;20381;-80
2022/06/21 07:05:57;;;;;;;12.10;2.92;;;;;;;20.01;86.29;100809.88;5069281;28;20025;-80
2022/06/21 07:08:37;;;;;;;13.85;3.28;;;;;;;20.00;86.04;100809.06;5070479;28;20036;-80
2022/06/21 07:11:23;;;;;;;13.80;2.92;;;;;;;19.78;85.49;100790.03;5085907;28;20028;-80
2022/06/21 07:13:50;;;;;;;15.93;3.53;;;;;;;19.53;86.92;100763.28;5069319;28;20446;-80
2022/06/21 07:16:22;;;;;;;15.73;3.47;;;;;;;19.90;86.05;100808.94;5070149;28;20387;-80
2022/06/21 07:18:51;;;;;;;17.08;3.28;;;;;;;19.83;85.14;100797.44;5074117;28;20032;-80
2022/06/21 07:21:20;;;;;;;14.00;3.50;;;;;;;19.76;85.58;100788.63;5071121;28;20115;-81
2022/06/21 07:23:45;;;;;;;13.98;2.75;;;;;;;19.76;84.80;100783.19;5070135;28;20033;-79
2022/06/21 07:26:26;;;;;;;11.07;2.40;;;;;;;19.64;84.69;100805.22;5072228;28;20024;-80
2022/06/21 07:29:13;;;;;;;20.42;3.20;;;;;;;19.51;86.31;100809.16;5069173;28;20111;-79
2022/06/21 07:31:55;;;;;;;18.27;3.58;;;;;;;19.35;86.27;100807.34;5087667;28;20089;-80
2022/06/21 07:34:32;;;;;;;21.33;3.47;;;;;;;19.35;86.96;100802.72;5078019;28;20013;-80
2022/06/21 07:37:03;;;;;;;14.98;3.25;;;;;;;19.37;87.37;100788.78;5075791;28;20029;-80
2022/06/21 07:39:34;;;;;;;16.45;3.38;;;;;;;19.19;86.82;100781.81;5075103;28;20068;-80
2022/06/21 07:42:15;;;;;;;13.95;3.97;;;;;;;19.20;87.04;100792.47;5077220;28;20021;-81
2022/06/21 07:45:00;;;;;;;14.13;3.58;;;;;;;19.45;87.66;100829.28;5076920;28;20108;-79
2022/06/21 07:47:43;;;;;;;13.73;2.85;;;;;;;19.20;87.44;100830.66;5074985;28;20037;-80
2022/06/21 07:50:19;;;;;;;16.13;3.70;;;;;;;19.01;87.50;100830.16;5075544;28;20477;-81
2022/06/21 07:52:52;;;;;;;14.20;3.05;;;;;;;19.05;87.75;100813.31;5071215;28;20031;-80
2022/06/21 07:55:33;;;;;;;17.40;3.50;;;;;;;19.25;87.53;100817.06;5065656;28;20462;-81
2022/06/21 07:58:09;;;;;;;14.00;3.20;;;;;;;19.56;87.55;100824.75;5069462;28;20119;-80
2022/06/21 08:09:30;;;;;;;14.02;3.08;;;;;;;20.23;84.54;100834.31;5072288;28;20039;-80
2022/06/21 08:12:00;;;;;;;15.40;2.72;;;;;;;20.11;83.74;100838.09;5074050;28;20044;-80
2022/06/21 08:14:28;;;;;;;17.98;3.60;;;;;;;20.11;85.03;100840.81;5043703;28;20051;-79
2022/06/21 08:17:23;;;;;;;15.38;3.25;;;;;;;20.21;83.42;100841.97;5105788;28;20469;-79
2022/06/21 08:20:01;;;;;;;10.73;3.27;;;;;;;20.19;82.50;100850.44;5072688;28;20025;-81
2022/06/21 08:22:37;;;;;;;15.82;3.40;;;;;;;19.91;82.53;100846.94;5073831;28;20032;-80
2022/06/21 08:25:15;;;;;;;15.30;3.22;;;;;;;20.01;82.40;100842.66;5083824;28;20024;-80
2022/06/21 08:28:07;;;;;;;17.17;3.30;;;;;;;19.88;82.01;100827.53;5071835;28;20331;-81
2022/06/21 08:30:45;;;;;;;14.85;3.45;;;;;;;20.09;82.37;100848.44;5070982;28;20029;-80
2022/06/21 08:33:35;;;;;;;15.77;3.35;;;;;;;20.28;81.04;100845.31;5078347;28;20149;-80
2022/06/21 08:36:11;;;;;;;10.85;2.83;;;;;;;20.19;81.10;100856.72;5083315;28;20055;-80
2022/06/21 08:39:14;;;;;;;15.13;3.08;;;;;;;20.17;79.75;100856.16;5083394;28;20036;-80
2022/06/21 08:42:18;;;;;;;13.98;2.95;;;;;;;19.95;80.25;100845.31;5071640;28;20459;-80
2022/06/21 08:48:06;;;;;;;13.30;2.88;;;;;;;20.11;79.63;100853.66;5065470;28;20128;-80
2022/06/21 08:50:32;;;;;;;11.35;3.17;;;;;;;20.18;79.52;100865.19;5078731;28;20028;-80
2022/06/21 08:53:21;;;;;;;15.57;3.30;;;;;;;20.21;80.01;100861.09;5066241;28;20028;-80
2022/06/21 08:55:49;;;;;;;18.27;3.83;;;;;;;20.32;80.75;100854.63;5064287;28;20032;-80
2022/06/21 08:58:17;;;;;;;17.17;3.35;;;;;;;20.61;81.18;100863.31;5063616;28;20331;-80
2022/06/21 09:00:55;;;;;;;12.98;3.40;;;;;;;20.53;78.43;100856.44;5075328;28;20009;-81
2022/06/21 09:03:49;;;;;;;15.50;3.60;;;;;;;20.28;79.06;100858.97;5087720;28;20059;-79
2022/06/21 09:06:25;;;;;;;11.02;2.65;;;;;;;20.13;77.89;100846.84;5073285;28;20108;-80
2022/06/21 09:09:21;;;;;;;17.30;3.38;;;;;;;20.04;79.47;100847.59;5071288;28;20159;-79
2022/06/21 09:12:11;;;;;;;14.90;3.40;;;;;;;20.10;79.41;100855.56;5070992;28;20458;-80
2022/06/21 09:15:06;;;;;;;13.70;3.30;;;;;;;20.33;79.58;100850.78;5067027;28;20028;-81
2022/06/21 09:17:35;;;;;;;15.57;2.85;;;;;;;20.23;78.35;100859.78;5068512;28;20028;-80
2022/06/21 09:20:22;;;;;;;11.10;3.15;;;;;;;20.03;77.90;100856.84;5063174;28;20036;-79
2022/06/21 09:23:05;;;;;;;11.65;3.40;;;;;;;19.83;80.25;100854.78;5061576;28;20024;-80
2022/06/21 09:25:49;;;;;;;17.30;3.83;;;;;;;19.90;81.59;100866.28;5064548;28;20044;-79
2022/06/21 09:28:29;;;;;;;13.00;3.13;;;;;;;19.71;82.51;100860.41;5065975;28;20439;-80
2022/06/21 09:31:08;;;;;;;17.13;3.55;;;;;;;19.60;83.17;100859.47;5070228;28;20024;-80
2022/06/21 09:33:50;;;;;;;14.20;2.90;;;;;;;19.50;82.05;100826.59;5079225;28;20028;-80
2022/06/21 09:36:47;;;;;;;13.82;2.63;;;;;;;19.28;79.19;100826.66;5074024;28;20032;-79
2022/06/21 09:39:42;;;;;;;14.63;2.83;;;;;;;19.79;78.96;100867.31;5067326;28;20024;-79
2022/06/21 09:42:38;;;;;;;11.40;2.78;;;;;;;19.49;79.74;100863.97;5046268;28;20461;-80
2022/06/21 09:45:17;;;;;;;14.60;2.80;;;;;;;19.51;80.41;100869.19;5062675;28;20041;-79
2022/06/21 09:47:51;;;;;;;15.70;3.10;;;;;;;19.54;81.74;100874.13;5067534;28;20041;-79
2022/06/21 09:50:16;;;;;;;14.55;3.17;;;;;;;19.48;81.92;100880.63;5067068;28;20017;-80
2022/06/21 09:52:50;;;;;;;14.93;2.88;;;;;;;19.47;83.38;100884.44;5068431;28;20024;-80
2022/06/21 09:55:20;;;;;;;12.57;3.03;;;;;;;19.04;84.51;100844.34;5066168;28;20043;-80
2022/06/21 09:57:45;;;;;;;15.57;3.00;;;;;;;19.35;85.13;100879.09;5070500;28;20276;-79
2022/06/21 10:00:31;;;;;;;13.18;3.00;;;;;;;19.31;82.75;100852.59;5069601;28;20468;-80
2022/06/21 10:03:39;;;;;;;14.77;2.78;;;;;;;19.41;82.54;100844.53;5070203;28;20028;-78
2022/06/21 10:06:19;;;;;;;17.05;3.10;;;;;;;19.66;83.92;100863.91;5023766;28;20067;-80
2022/06/21 10:09:21;;;;;;;16.10;3.03;;;;;;;20.10;83.83;100879.34;5069710;28;20028;-79
2022/06/21 10:12:05;;;;;;;14.15;3.03;;;;;;;20.09;82.91;100878.47;5071846;28;20025;-80
2022/06/21 10:14:50;;;;;;;19.63;3.00;;;;;;;19.91;80.40;100885.16;5071103;28;20021;-80
2022/06/21 10:17:28;;;;;;;12.38;2.80;;;;;;;19.88;81.26;100857.56;5072566;28;20028;-80
2022/06/21 10:20:23;;;;;;;17.85;2.90;;;;;;;19.88;82.14;100865.75;5072215;28;20038;-80
2022/06/21 10:23:25;;;;;;;13.63;3.10;;;;;;;19.78;82.52;100871.13;5088545;28;20039;-78
2022/06/21 10:26:12;;;;;;;14.77;3.08;;;;;;;19.83;82.15;100879.34;5108420;28;20362;-80
2022/06/21 10:29:03;;;;;;;12.07;3.10;;;;;;;19.88;82.90;100874.75;5080136;28;20090;-80
2022/06/21 10:31:47;;;;;;;15.02;2.95;;;;;;;19.88;84.12;100882.97;5053864;28;20036;-80
2022/06/21 10:34:38;;;;;;;14.18;2.88;;;;;;;19.73;nan;100877.34;5079351;28;20022;-77
2022/06/21 10:37:23;;;;;;;15.60;2.95;;;;;;;19.90;85.83;100882.69;5088992;28;20166;-79
2022/06/21 10:40:08;;;;;;;17.42;3.42;;;;;;;19.96;85.04;100884.38;5082988;28;20025;-79
2022/06/21 10:43:24;;;;;;;14.30;2.97;;;;;;;19.76;83.28;100885.03;5065983;28;20016;-79
2022/06/21 10:46:10;;;;;;;7.30;2.20;;;;;;;19.82;82.13;100894.09;5024286;28;20064;-77
2022/06/21 10:48:44;;;;;;;13.00;2.75;;;;;;;19.84;80.72;100886.47;5068527;28;20111;-78
2022/06/21 10:51:15;;;;;;;11.60;3.00;;;;;;;19.78;81.03;100879.31;5066481;28;20025;-78
2022/06/21 10:54:16;;;;;;;10.88;2.30;;;;;;;19.66;84.23;100880.28;5084729;28;20337;-78
2022/06/21 10:57:09;;;;;;;12.50;2.65;;;;;;;19.61;83.33;100896.59;5054632;28;20110;-78
2022/06/21 11:02:54;;;;;;;13.00;2.65;;;;;;;19.23;84.75;100890.16;5074558;28;20476;-79
2022/06/21 11:05:38;;;;;;;13.60;2.72;;;;;;;19.30;84.53;100891.84;5073244;28;20475;-78
2022/06/21 11:08:24;;;;;;;12.33;2.33;;;;;;;19.20;83.12;100893.41;5093376;28;20085;-79
2022/06/21 11:10:56;;;;;;;8.38;2.17;;;;;;;19.32;83.33;100895.16;5090876;28;20123;-79
2022/06/21 11:13:29;;;;;;;13.98;2.83;;;;;;;19.39;82.74;100880.25;5076210;28;20024;-79
2022/06/21 11:16:14;;;;;;;13.25;3.15;;;;;;;19.53;83.95;100867.00;5089660;28;20029;-79
2022/06/21 11:19:07;;;;;;;9.77;2.38;;;;;;;19.60;83.18;100875.84;5074203;28;20465;-77
2022/06/21 11:21:50;;;;;;;14.13;3.38;;;;;;;19.79;82.27;100886.41;5064295;28;20031;-80
2022/06/21 11:24:51;;;;;;;11.02;2.70;;;;;;;19.42;82.03;100874.28;5087797;28;20016;-78
2022/06/21 11:27:52;;;;;;;8.95;2.10;;;;;;;19.55;82.66;100892.16;5083048;28;20030;-80
2022/06/21 11:30:45;;;;;;;10.85;2.10;;;;;;;19.64;82.61;100887.09;5069590;28;20120;-81
2022/06/21 11:33:19;;;;;;;8.52;2.20;;;;;;;19.59;80.85;100885.09;5073964;28;20036;-78
2022/06/21 11:36:00;;;;;;;12.27;2.20;;;;;;;19.67;81.18;100887.41;5085211;28;20036;-79
2022/06/21 11:38:48;;;;;;;14.57;2.83;;;;;;;19.77;83.03;100896.75;5070027;28;20111;-81
2022/06/21 11:44:36;;;;;;;11.43;2.10;;;;;;;19.54;82.86;100887.78;5074056;28;20098;-79
2022/06/21 11:47:09;;;;;;;9.00;2.25;;;;;;;19.55;83.70;100891.34;5057346;28;21382;-78
2022/06/21 12:00:05;;;;;;;9.38;1.95;;;;;;;20.00;81.77;100871.88;5087196;28;20042;-81
2022/06/21 12:02:48;;;;;;;10.75;2.45;;;;;;;20.32;80.68;100893.69;5091618;28;20351;-81
2022/06/21 12:05:26;;;;;;;12.07;2.35;;;;;;;20.29;79.99;100860.59;5085424;28;20446;-81
2022/06/21 12:08:02;;;;;;;12.80;2.30;;;;;;;20.46;79.07;100896.78;5064109;28;20111;-80
2022/06/21 12:10:56;;;;;;;15.95;2.70;;;;;;;20.31;79.66;100883.03;5091009;28;20027;-81
2022/06/21 12:13:37;;;;;;;15.10;3.17;;;;;;;20.49;80.82;100900.91;5085664;28;20032;-81
2022/06/21 12:16:27;;;;;;;13.35;2.70;;;;;;;20.41;79.82;100896.78;5088624;28;20356;-80
2022/06/21 12:19:04;;;;;;;17.13;3.05;;;;;;;20.14;80.83;100891.38;5073316;28;20042;-80
2022/06/21 12:21:38;;;;;;;11.40;3.10;;;;;;;20.05;81.77;100903.88;5088403;28;20049;-80
2022/06/21 12:24:14;;;;;;;15.48;2.58;;;;;;;19.76;82.54;100889.66;5057310;28;20028;-81
2022/06/21 12:26:41;;;;;;;14.40;2.97;;;;;;;19.64;84.00;100876.19;5085627;28;20028;-80
2022/06/21 12:29:14;;;;;;;13.45;2.70;;;;;;;19.78;83.42;100895.69;5099995;28;20032;-81
2022/06/21 12:31:48;;;;;;;16.38;2.83;;;;;;;19.61;84.17;100872.03;5072798;28;20031;-81
2022/06/21 12:34:33;;;;;;;12.23;2.90;;;;;;;19.52;85.20;100889.13;5092077;28;20108;-81